JBU9900 KJFK-KTUS
Flight info
| Callsign | JBU9900 |
|---|---|
| Flight time | 5h 24m |
| Altitude | 32000 |
| Route | RBV Q430 SAAME J6 HVQ GETTA TINGS PLIED KOMMA HYDES/N0467F340 HOMET MIRSE ZONNA SSAND J104 TUS |
| Aircraft | A320/M-SDE3FGHIRWY/LB1 |
Departure
| Time | 2026-04-30 12:41 |
|---|---|
| Airport | John F. Kennedy International Airport (KJFK) |
Arrival
| Time | 2026-04-30 18:05 |
|---|---|
| Airport | Tucson International Airport (KTUS) |
| Time | Latitude | Longitude | Altitude | Speed | Heading |
|---|---|---|---|---|---|
| 2026-04-30 12:29 | 40.64630 | -73.77351 | 14 ft | 0 kts | 189° |
| 2026-04-30 12:31 | 40.64636 | -73.77350 | 14 ft | 2 kts | 189° |
| 2026-04-30 12:32 | 40.64651 | -73.77347 | 14 ft | 2 kts | 189° |
| 2026-04-30 12:32 | 40.64665 | -73.77344 | 14 ft | 2 kts | 189° |
| 2026-04-30 12:32 | 40.64680 | -73.77341 | 14 ft | 2 kts | 189° |
| 2026-04-30 12:32 | 40.64693 | -73.77338 | 14 ft | 1 kts | 200° |
| 2026-04-30 12:33 | 40.64701 | -73.77329 | 14 ft | 1 kts | 257° |
| 2026-04-30 12:33 | 40.64701 | -73.77319 | 14 ft | 1 kts | 294° |
| 2026-04-30 12:33 | 40.64699 | -73.77313 | 14 ft | 0 kts | 285° |
| 2026-04-30 12:35 | 40.64700 | -73.77313 | 14 ft | 0 kts | 285° |
| 2026-04-30 12:35 | 40.64703 | -73.77325 | 14 ft | 4 kts | 292° |
| 2026-04-30 12:36 | 40.64732 | -73.77368 | 14 ft | 7 kts | 340° |
| 2026-04-30 12:36 | 40.64777 | -73.77346 | 14 ft | 7 kts | 69° |
| 2026-04-30 12:36 | 40.64766 | -73.77276 | 14 ft | 8 kts | 115° |
| 2026-04-30 12:36 | 40.64754 | -73.77210 | 14 ft | 7 kts | 71° |
| 2026-04-30 12:37 | 40.64785 | -73.77147 | 14 ft | 8 kts | 53° |
| 2026-04-30 12:37 | 40.64823 | -73.77079 | 14 ft | 9 kts | 53° |
| 2026-04-30 12:37 | 40.64867 | -73.77002 | 14 ft | 11 kts | 52° |
| 2026-04-30 12:37 | 40.64915 | -73.76915 | 14 ft | 12 kts | 56° |
| 2026-04-30 12:38 | 40.64956 | -73.76834 | 14 ft | 10 kts | 56° |
| 2026-04-30 12:38 | 40.64989 | -73.76767 | 14 ft | 8 kts | 69° |
| 2026-04-30 12:38 | 40.64973 | -73.76694 | 14 ft | 9 kts | 118° |
| 2026-04-30 12:38 | 40.64986 | -73.76620 | 14 ft | 9 kts | 43° |
| 2026-04-30 12:39 | 40.65040 | -73.76559 | 14 ft | 10 kts | 29° |
| 2026-04-30 12:39 | 40.65099 | -73.76507 | 14 ft | 8 kts | 69° |
| 2026-04-30 12:39 | 40.65083 | -73.76434 | 14 ft | 8 kts | 116° |
| 2026-04-30 12:39 | 40.65053 | -73.76363 | 14 ft | 9 kts | 120° |
| 2026-04-30 12:40 | 40.65009 | -73.76357 | 14 ft | 6 kts | 210° |
| 2026-04-30 12:40 | 40.64823 | -73.76508 | 14 ft | 64 kts | 211° |
| 2026-04-30 12:40 | 40.64258 | -73.76949 | 15 ft | 122 kts | 211° |
| 2026-04-30 12:40 | 40.63385 | -73.77629 | 14 ft | 168 kts | 210° |
| 2026-04-30 12:41 | 40.62333 | -73.78462 | 384 ft | 178 kts | 210° |
| 2026-04-30 12:41 | 40.61346 | -73.79401 | 975 ft | 178 kts | 226° |
| 2026-04-30 12:41 | 40.60639 | -73.80705 | 1615 ft | 177 kts | 239° |
| 2026-04-30 12:41 | 40.59972 | -73.82099 | 2056 ft | 186 kts | 236° |
| 2026-04-30 12:42 | 40.59190 | -73.83545 | 2377 ft | 202 kts | 234° |
| 2026-04-30 12:42 | 40.58324 | -73.85089 | 2696 ft | 219 kts | 234° |
| 2026-04-30 12:42 | 40.57377 | -73.86745 | 3067 ft | 235 kts | 234° |
| 2026-04-30 12:42 | 40.56060 | -73.89012 | 4023 ft | 236 kts | 234° |
| 2026-04-30 12:43 | 40.55399 | -73.90147 | 4488 ft | 237 kts | 234° |
| 2026-04-30 12:43 | 40.54384 | -73.91888 | 5156 ft | 240 kts | 234° |
| 2026-04-30 12:43 | 40.53351 | -73.93654 | 5560 ft | 255 kts | 234° |
| 2026-04-30 12:43 | 40.52237 | -73.95557 | 6111 ft | 264 kts | 234° |
| 2026-04-30 12:44 | 40.51119 | -73.97459 | 6857 ft | 265 kts | 233° |
| 2026-04-30 12:44 | 40.50006 | -73.99355 | 7589 ft | 267 kts | 233° |
| 2026-04-30 12:44 | 40.48876 | -74.01274 | 8319 ft | 268 kts | 233° |
| 2026-04-30 12:44 | 40.47744 | -74.03196 | 9044 ft | 268 kts | 233° |
| 2026-04-30 12:45 | 40.46599 | -74.05135 | 9751 ft | 269 kts | 232° |
| 2026-04-30 12:45 | 40.45455 | -74.07071 | 10415 ft | 271 kts | 232° |
| 2026-04-30 12:45 | 40.44275 | -74.09066 | 10748 ft | 285 kts | 233° |
| 2026-04-30 12:45 | 40.43030 | -74.11170 | 11026 ft | 300 kts | 233° |
| 2026-04-30 12:46 | 40.41731 | -74.13367 | 11290 ft | 315 kts | 233° |
| 2026-04-30 12:46 | 40.40355 | -74.15696 | 11551 ft | 329 kts | 233° |
| 2026-04-30 12:46 | 40.38922 | -74.18119 | 11871 ft | 341 kts | 233° |
| 2026-04-30 12:46 | 40.37462 | -74.20580 | 12450 ft | 343 kts | 233° |
| 2026-04-30 12:47 | 40.36016 | -74.23016 | 13100 ft | 343 kts | 234° |
| 2026-04-30 12:47 | 40.34536 | -74.25507 | 13724 ft | 344 kts | 234° |
| 2026-04-30 12:47 | 40.33079 | -74.27955 | 14340 ft | 344 kts | 233° |
| 2026-04-30 12:47 | 40.31618 | -74.30412 | 14912 ft | 345 kts | 234° |
| 2026-04-30 12:48 | 40.30135 | -74.32902 | 15460 ft | 347 kts | 234° |
| 2026-04-30 12:48 | 40.28663 | -74.35375 | 16002 ft | 348 kts | 234° |
| 2026-04-30 12:48 | 40.27158 | -74.37897 | 16519 ft | 350 kts | 234° |
| 2026-04-30 12:48 | 40.25674 | -74.40384 | 17009 ft | 352 kts | 234° |
| 2026-04-30 12:49 | 40.24166 | -74.42908 | 17501 ft | 354 kts | 234° |
| 2026-04-30 12:49 | 40.22635 | -74.45474 | 17979 ft | 356 kts | 234° |
| 2026-04-30 12:49 | 40.21307 | -74.48148 | 18419 ft | 356 kts | 244° |
| 2026-04-30 12:49 | 40.20374 | -74.51162 | 18915 ft | 357 kts | 253° |
| 2026-04-30 12:50 | 40.19877 | -74.54306 | 19352 ft | 360 kts | 261° |
| 2026-04-30 12:50 | 40.19598 | -74.57573 | 19728 ft | 363 kts | 262° |
| 2026-04-30 12:50 | 40.19339 | -74.60861 | 20097 ft | 367 kts | 262° |
| 2026-04-30 12:50 | 40.19077 | -74.64192 | 20509 ft | 370 kts | 262° |
| 2026-04-30 12:51 | 40.18813 | -74.67550 | 20937 ft | 372 kts | 262° |
| 2026-04-30 12:51 | 40.18548 | -74.70886 | 21367 ft | 373 kts | 262° |
| 2026-04-30 12:51 | 40.18279 | -74.74272 | 21773 ft | 376 kts | 262° |
| 2026-04-30 12:51 | 40.18012 | -74.77644 | 22170 ft | 378 kts | 262° |
| 2026-04-30 12:52 | 40.17736 | -74.81083 | 22555 ft | 381 kts | 262° |
| 2026-04-30 12:52 | 40.17458 | -74.84544 | 22937 ft | 383 kts | 262° |
| 2026-04-30 12:52 | 40.17184 | -74.87955 | 23350 ft | 384 kts | 262° |
| 2026-04-30 12:52 | 40.16901 | -74.91454 | 23730 ft | 386 kts | 262° |
| 2026-04-30 12:53 | 40.16616 | -74.94938 | 24102 ft | 388 kts | 262° |
| 2026-04-30 12:53 | 40.16333 | -74.98418 | 24488 ft | 389 kts | 262° |
| 2026-04-30 12:53 | 40.16043 | -75.01954 | 24882 ft | 389 kts | 262° |
| 2026-04-30 12:53 | 40.15756 | -75.05454 | 25249 ft | 390 kts | 262° |
| 2026-04-30 12:54 | 40.15467 | -75.08961 | 25618 ft | 391 kts | 262° |
| 2026-04-30 12:54 | 40.15176 | -75.12495 | 25976 ft | 391 kts | 262° |
| 2026-04-30 12:54 | 40.14885 | -75.16003 | 26275 ft | 393 kts | 262° |
| 2026-04-30 12:54 | 40.14590 | -75.19549 | 26594 ft | 394 kts | 262° |
| 2026-04-30 12:55 | 40.14296 | -75.23077 | 27024 ft | 391 kts | 262° |
| 2026-04-30 12:55 | 40.14000 | -75.26587 | 27502 ft | 387 kts | 262° |
| 2026-04-30 12:55 | 40.13707 | -75.30056 | 27929 ft | 385 kts | 262° |
| 2026-04-30 12:55 | 40.13414 | -75.33516 | 28367 ft | 381 kts | 262° |
| 2026-04-30 12:56 | 40.13128 | -75.36885 | 28766 ft | 378 kts | 262° |
| 2026-04-30 12:56 | 40.12837 | -75.40311 | 29124 ft | 376 kts | 262° |
| 2026-04-30 12:56 | 40.12548 | -75.43679 | 29467 ft | 373 kts | 262° |
| 2026-04-30 12:56 | 40.12260 | -75.47034 | 29743 ft | 373 kts | 262° |
| 2026-04-30 12:57 | 40.11973 | -75.50355 | 30004 ft | 372 kts | 262° |
| 2026-04-30 12:57 | 40.11686 | -75.53698 | 30259 ft | 371 kts | 262° |
| 2026-04-30 12:57 | 40.11395 | -75.57040 | 30505 ft | 370 kts | 262° |
| 2026-04-30 12:57 | 40.11106 | -75.60354 | 30631 ft | 371 kts | 262° |
| 2026-04-30 12:58 | 40.10518 | -75.67069 | 30899 ft | 373 kts | 261° |
| 2026-04-30 12:58 | 40.10220 | -75.70429 | 31092 ft | 373 kts | 261° |
| 2026-04-30 12:58 | 40.09926 | -75.73791 | 31210 ft | 374 kts | 261° |
| 2026-04-30 12:59 | 40.09328 | -75.80531 | 31432 ft | 377 kts | 261° |
| 2026-04-30 12:59 | 40.09026 | -75.83929 | 31579 ft | 377 kts | 261° |
| 2026-04-30 12:59 | 40.08725 | -75.87305 | 31721 ft | 377 kts | 261° |
| 2026-04-30 13:00 | 40.08418 | -75.90695 | 31838 ft | 378 kts | 262° |
| 2026-04-30 13:00 | 40.08109 | -75.94121 | 31841 ft | 379 kts | 261° |
| 2026-04-30 13:00 | 40.07496 | -76.00916 | 31853 ft | 379 kts | 262° |
| 2026-04-30 13:01 | 40.06872 | -76.07783 | 31853 ft | 381 kts | 262° |
| 2026-04-30 13:01 | 40.06250 | -76.14588 | 31852 ft | 381 kts | 262° |
| 2026-04-30 13:02 | 40.05619 | -76.21448 | 31848 ft | 380 kts | 261° |
| 2026-04-30 13:02 | 40.04989 | -76.28241 | 31861 ft | 380 kts | 262° |
| 2026-04-30 13:03 | 40.04350 | -76.35090 | 31863 ft | 381 kts | 261° |
| 2026-04-30 13:03 | 40.03416 | -76.41818 | 31866 ft | 380 kts | 256° |
| 2026-04-30 13:04 | 40.01908 | -76.48398 | 31874 ft | 380 kts | 251° |
| 2026-04-30 13:04 | 39.99851 | -76.54727 | 31873 ft | 381 kts | 246° |
| 2026-04-30 13:05 | 39.97254 | -76.60791 | 31873 ft | 382 kts | 242° |
| 2026-04-30 13:06 | 39.93192 | -76.69691 | 31860 ft | 383 kts | 241° |
| 2026-04-30 13:06 | 39.90444 | -76.75601 | 31870 ft | 383 kts | 240° |
| 2026-04-30 13:07 | 39.87685 | -76.81496 | 31873 ft | 383 kts | 241° |
| 2026-04-30 13:07 | 39.84911 | -76.87415 | 31862 ft | 383 kts | 241° |
| 2026-04-30 13:08 | 39.82151 | -76.93297 | 31872 ft | 384 kts | 241° |
| 2026-04-30 13:08 | 39.79376 | -76.99204 | 31874 ft | 382 kts | 241° |
| 2026-04-30 13:09 | 39.76596 | -77.05106 | 31873 ft | 383 kts | 241° |
| 2026-04-30 13:09 | 39.73827 | -77.10983 | 31866 ft | 383 kts | 241° |
| 2026-04-30 13:10 | 39.71056 | -77.16845 | 31872 ft | 383 kts | 241° |
| 2026-04-30 13:10 | 39.68269 | -77.22731 | 31873 ft | 383 kts | 241° |
| 2026-04-30 13:11 | 39.65483 | -77.28598 | 31872 ft | 381 kts | 241° |
| 2026-04-30 13:11 | 39.62703 | -77.34439 | 31880 ft | 382 kts | 242° |
| 2026-04-30 13:12 | 39.59913 | -77.40297 | 31886 ft | 383 kts | 242° |
| 2026-04-30 13:12 | 39.57135 | -77.46122 | 31883 ft | 382 kts | 241° |
| 2026-04-30 13:13 | 39.52940 | -77.54890 | 31888 ft | 381 kts | 241° |
| 2026-04-30 13:14 | 39.48763 | -77.63605 | 31897 ft | 380 kts | 242° |
| 2026-04-30 13:14 | 39.44582 | -77.72310 | 31901 ft | 381 kts | 240° |
| 2026-04-30 13:15 | 39.40393 | -77.80994 | 31901 ft | 381 kts | 241° |
| 2026-04-30 13:16 | 39.37729 | -77.86923 | 31903 ft | 381 kts | 245° |
| 2026-04-30 13:16 | 39.35317 | -77.92992 | 31901 ft | 380 kts | 245° |
| 2026-04-30 13:17 | 39.31703 | -78.02064 | 31909 ft | 381 kts | 245° |
| 2026-04-30 13:18 | 39.28080 | -78.11153 | 31897 ft | 380 kts | 245° |
| 2026-04-30 13:18 | 39.24448 | -78.20245 | 31902 ft | 381 kts | 245° |
| 2026-04-30 13:19 | 39.22033 | -78.26275 | 31910 ft | 382 kts | 245° |
| 2026-04-30 13:19 | 39.19596 | -78.32346 | 31913 ft | 381 kts | 245° |
| 2026-04-30 13:20 | 39.17171 | -78.38384 | 31918 ft | 380 kts | 245° |
| 2026-04-30 13:20 | 39.14751 | -78.44391 | 31921 ft | 379 kts | 245° |
| 2026-04-30 13:21 | 39.12315 | -78.50431 | 31915 ft | 380 kts | 245° |
| 2026-04-30 13:22 | 39.08662 | -78.59466 | 31908 ft | 382 kts | 245° |
| 2026-04-30 13:22 | 39.05001 | -78.68488 | 31910 ft | 381 kts | 245° |
| 2026-04-30 13:23 | 39.01322 | -78.77530 | 31901 ft | 381 kts | 245° |
| 2026-04-30 13:24 | 38.96405 | -78.89571 | 31908 ft | 382 kts | 245° |
| 2026-04-30 13:25 | 38.91473 | -79.01607 | 31917 ft | 381 kts | 245° |
| 2026-04-30 13:26 | 38.85490 | -79.16727 | 31917 ft | 381 kts | 250° |
| 2026-04-30 13:28 | 38.81681 | -79.32833 | 31914 ft | 379 kts | 258° |
| 2026-04-30 13:28 | 38.79886 | -79.42706 | 31907 ft | 381 kts | 258° |
| 2026-04-30 13:29 | 38.77495 | -79.55878 | 31899 ft | 381 kts | 258° |
| 2026-04-30 13:31 | 38.74482 | -79.72377 | 31914 ft | 383 kts | 258° |
| 2026-04-30 13:32 | 38.71436 | -79.88937 | 31925 ft | 384 kts | 257° |
| 2026-04-30 13:33 | 38.68980 | -80.02177 | 31924 ft | 384 kts | 257° |
| 2026-04-30 13:34 | 38.67125 | -80.12115 | 31931 ft | 384 kts | 258° |
| 2026-04-30 13:35 | 38.64634 | -80.25368 | 31947 ft | 384 kts | 257° |
| 2026-04-30 13:36 | 38.62136 | -80.38574 | 31960 ft | 383 kts | 258° |
| 2026-04-30 13:36 | 38.60252 | -80.48473 | 31968 ft | 384 kts | 258° |
| 2026-04-30 13:37 | 38.58355 | -80.58405 | 31971 ft | 384 kts | 257° |
| 2026-04-30 13:38 | 38.56452 | -80.68294 | 31987 ft | 384 kts | 257° |
| 2026-04-30 13:39 | 38.53893 | -80.81546 | 31994 ft | 385 kts | 257° |
| 2026-04-30 13:40 | 38.51969 | -80.91443 | 31994 ft | 384 kts | 257° |
| 2026-04-30 13:40 | 38.50686 | -80.98013 | 32001 ft | 384 kts | 257° |
| 2026-04-30 13:41 | 38.49392 | -81.04624 | 32009 ft | 385 kts | 257° |
| 2026-04-30 13:41 | 38.48092 | -81.11248 | 32014 ft | 385 kts | 257° |
| 2026-04-30 13:42 | 38.46795 | -81.17828 | 32019 ft | 386 kts | 257° |
| 2026-04-30 13:42 | 38.44830 | -81.27763 | 32023 ft | 386 kts | 258° |
| 2026-04-30 13:43 | 38.43517 | -81.34372 | 32021 ft | 386 kts | 257° |
| 2026-04-30 13:43 | 38.42196 | -81.41003 | 32021 ft | 386 kts | 258° |
| 2026-04-30 13:44 | 38.40875 | -81.47617 | 32026 ft | 385 kts | 258° |
| 2026-04-30 13:44 | 38.39555 | -81.54205 | 32025 ft | 386 kts | 258° |
| 2026-04-30 13:45 | 38.37562 | -81.64101 | 32028 ft | 385 kts | 258° |
| 2026-04-30 13:46 | 38.36232 | -81.70699 | 32032 ft | 385 kts | 258° |
| 2026-04-30 13:46 | 38.35184 | -81.77341 | 32036 ft | 384 kts | 262° |
| 2026-04-30 13:47 | 38.34611 | -81.84077 | 32032 ft | 384 kts | 266° |
| 2026-04-30 13:47 | 38.34251 | -81.90820 | 32033 ft | 384 kts | 266° |
| 2026-04-30 13:48 | 38.33889 | -81.97606 | 32038 ft | 384 kts | 266° |
| 2026-04-30 13:48 | 38.33530 | -82.04354 | 32037 ft | 384 kts | 266° |
| 2026-04-30 13:49 | 38.33165 | -82.11128 | 32043 ft | 384 kts | 266° |
| 2026-04-30 13:49 | 38.32801 | -82.17892 | 32038 ft | 384 kts | 266° |
| 2026-04-30 13:50 | 38.32430 | -82.24633 | 32034 ft | 384 kts | 266° |
| 2026-04-30 13:50 | 38.31868 | -82.34778 | 32039 ft | 385 kts | 267° |
| 2026-04-30 13:51 | 38.31490 | -82.41563 | 32043 ft | 384 kts | 267° |
| 2026-04-30 13:51 | 38.31109 | -82.48301 | 32048 ft | 384 kts | 266° |
| 2026-04-30 13:52 | 38.30723 | -82.55069 | 32053 ft | 384 kts | 266° |
| 2026-04-30 13:52 | 38.30330 | -82.61856 | 32049 ft | 385 kts | 267° |
| 2026-04-30 13:53 | 38.29932 | -82.68636 | 32053 ft | 385 kts | 266° |
| 2026-04-30 13:53 | 38.29535 | -82.75392 | 32048 ft | 385 kts | 266° |
| 2026-04-30 13:54 | 38.29131 | -82.82168 | 32052 ft | 385 kts | 266° |
| 2026-04-30 13:54 | 38.28727 | -82.88914 | 32046 ft | 384 kts | 267° |
| 2026-04-30 13:55 | 38.28319 | -82.95665 | 32050 ft | 384 kts | 266° |
| 2026-04-30 13:55 | 38.27901 | -83.02457 | 32048 ft | 385 kts | 267° |
| 2026-04-30 13:56 | 38.27485 | -83.09190 | 32044 ft | 385 kts | 267° |
| 2026-04-30 13:56 | 38.27059 | -83.15997 | 32045 ft | 386 kts | 267° |
| 2026-04-30 13:57 | 38.26636 | -83.22754 | 32040 ft | 385 kts | 267° |
| 2026-04-30 13:57 | 38.26207 | -83.29501 | 32042 ft | 386 kts | 267° |
| 2026-04-30 13:58 | 38.25552 | -83.39688 | 32053 ft | 386 kts | 267° |
| 2026-04-30 13:59 | 38.25111 | -83.46474 | 32056 ft | 385 kts | 267° |
| 2026-04-30 13:59 | 38.24666 | -83.53220 | 32068 ft | 385 kts | 267° |
| 2026-04-30 14:00 | 38.24220 | -83.59962 | 32069 ft | 384 kts | 267° |
| 2026-04-30 14:00 | 38.23540 | -83.70132 | 32075 ft | 385 kts | 266° |
| 2026-04-30 14:01 | 38.23085 | -83.76856 | 32068 ft | 385 kts | 267° |
| 2026-04-30 14:01 | 38.22623 | -83.83620 | 32066 ft | 385 kts | 266° |
| 2026-04-30 14:02 | 38.22156 | -83.90415 | 32069 ft | 385 kts | 267° |
| 2026-04-30 14:02 | 38.21688 | -83.97173 | 32072 ft | 386 kts | 267° |
| 2026-04-30 14:03 | 38.21215 | -84.03945 | 32071 ft | 386 kts | 267° |
| 2026-04-30 14:03 | 38.20737 | -84.10700 | 32066 ft | 386 kts | 267° |
| 2026-04-30 14:04 | 38.20256 | -84.17467 | 32071 ft | 385 kts | 267° |
| 2026-04-30 14:04 | 38.19771 | -84.24222 | 32074 ft | 384 kts | 267° |
| 2026-04-30 14:05 | 38.19284 | -84.30956 | 32073 ft | 383 kts | 267° |
| 2026-04-30 14:05 | 38.18794 | -84.37677 | 32073 ft | 383 kts | 267° |
| 2026-04-30 14:06 | 38.18052 | -84.47756 | 32078 ft | 382 kts | 267° |
| 2026-04-30 14:07 | 38.17303 | -84.57799 | 32082 ft | 382 kts | 267° |
| 2026-04-30 14:08 | 38.16546 | -84.67853 | 32084 ft | 382 kts | 267° |
| 2026-04-30 14:08 | 38.15783 | -84.77863 | 32084 ft | 382 kts | 267° |
| 2026-04-30 14:09 | 38.15270 | -84.84548 | 32089 ft | 381 kts | 267° |
| 2026-04-30 14:10 | 38.14491 | -84.94561 | 32087 ft | 381 kts | 267° |
| 2026-04-30 14:10 | 38.13967 | -85.01257 | 32092 ft | 381 kts | 267° |
| 2026-04-30 14:11 | 38.13441 | -85.07933 | 32088 ft | 380 kts | 267° |
| 2026-04-30 14:11 | 38.12912 | -85.14567 | 32096 ft | 380 kts | 267° |
| 2026-04-30 14:12 | 38.12378 | -85.21230 | 32093 ft | 380 kts | 267° |
| 2026-04-30 14:12 | 38.11844 | -85.27861 | 32095 ft | 379 kts | 267° |
| 2026-04-30 14:13 | 38.11305 | -85.34496 | 32093 ft | 379 kts | 267° |
| 2026-04-30 14:13 | 38.10761 | -85.41155 | 32101 ft | 379 kts | 267° |
| 2026-04-30 14:14 | 38.10216 | -85.47751 | 32100 ft | 377 kts | 267° |
| 2026-04-30 14:14 | 38.09552 | -85.54383 | 32108 ft | 379 kts | 264° |
| 2026-04-30 14:15 | 38.08441 | -85.60881 | 32114 ft | 380 kts | 260° |
| 2026-04-30 14:15 | 38.06855 | -85.67306 | 32114 ft | 384 kts | 255° |
| 2026-04-30 14:16 | 38.05082 | -85.73621 | 32109 ft | 382 kts | 255° |
| 2026-04-30 14:16 | 38.03286 | -85.79989 | 32106 ft | 382 kts | 256° |
| 2026-04-30 14:17 | 38.01498 | -85.86294 | 32103 ft | 382 kts | 256° |
| 2026-04-30 14:17 | 37.99703 | -85.92601 | 32106 ft | 381 kts | 256° |
| 2026-04-30 14:18 | 37.97908 | -85.98891 | 32108 ft | 381 kts | 256° |
| 2026-04-30 14:18 | 37.95202 | -86.08334 | 32106 ft | 380 kts | 256° |
| 2026-04-30 14:19 | 37.92507 | -86.17702 | 32117 ft | 379 kts | 256° |
| 2026-04-30 14:20 | 37.90708 | -86.23945 | 32109 ft | 378 kts | 256° |
| 2026-04-30 14:20 | 37.88001 | -86.33302 | 32114 ft | 376 kts | 256° |
| 2026-04-30 14:21 | 37.86199 | -86.39512 | 32111 ft | 378 kts | 256° |
| 2026-04-30 14:22 | 37.83489 | -86.48830 | 32100 ft | 377 kts | 257° |
| 2026-04-30 14:22 | 37.80776 | -86.58129 | 32099 ft | 376 kts | 257° |
| 2026-04-30 14:23 | 37.77155 | -86.70481 | 32110 ft | 376 kts | 256° |
| 2026-04-30 14:24 | 37.74429 | -86.79745 | 32106 ft | 376 kts | 256° |
| 2026-04-30 14:25 | 37.70793 | -86.92055 | 32105 ft | 374 kts | 256° |
| 2026-04-30 14:26 | 37.68076 | -87.01208 | 32125 ft | 374 kts | 256° |
| 2026-04-30 14:27 | 37.65348 | -87.10379 | 32119 ft | 373 kts | 256° |
| 2026-04-30 14:27 | 37.63527 | -87.16490 | 32130 ft | 373 kts | 256° |
| 2026-04-30 14:28 | 37.60785 | -87.25649 | 32124 ft | 373 kts | 256° |
| 2026-04-30 14:28 | 37.58959 | -87.31728 | 32120 ft | 372 kts | 257° |
| 2026-04-30 14:29 | 37.55312 | -87.43845 | 32118 ft | 370 kts | 257° |
| 2026-04-30 14:31 | 37.50755 | -87.58918 | 32124 ft | 369 kts | 257° |
| 2026-04-30 14:31 | 37.48027 | -87.67896 | 32130 ft | 369 kts | 257° |
| 2026-04-30 14:32 | 37.45282 | -87.76906 | 32128 ft | 368 kts | 256° |
| 2026-04-30 14:33 | 37.43451 | -87.82889 | 32134 ft | 368 kts | 257° |
| 2026-04-30 14:33 | 37.40698 | -87.91880 | 32135 ft | 367 kts | 256° |
| 2026-04-30 14:34 | 37.38868 | -87.97839 | 32142 ft | 368 kts | 256° |
| 2026-04-30 14:34 | 37.37025 | -88.03828 | 32147 ft | 367 kts | 257° |
| 2026-04-30 14:35 | 37.34278 | -88.12730 | 32150 ft | 366 kts | 257° |
| 2026-04-30 14:36 | 37.32435 | -88.18687 | 32133 ft | 366 kts | 257° |
| 2026-04-30 14:36 | 37.30595 | -88.24607 | 32134 ft | 365 kts | 257° |
| 2026-04-30 14:37 | 37.28684 | -88.30521 | 32133 ft | 366 kts | 256° |
| 2026-04-30 14:37 | 37.26740 | -88.36367 | 32121 ft | 365 kts | 256° |
| 2026-04-30 14:38 | 37.24792 | -88.42236 | 32135 ft | 364 kts | 256° |
| 2026-04-30 14:38 | 37.22839 | -88.48110 | 32140 ft | 363 kts | 256° |
| 2026-04-30 14:39 | 37.20899 | -88.53948 | 32135 ft | 364 kts | 256° |
| 2026-04-30 14:39 | 37.18966 | -88.59758 | 32142 ft | 364 kts | 256° |
| 2026-04-30 14:40 | 37.16042 | -88.68505 | 32145 ft | 364 kts | 256° |
| 2026-04-30 14:40 | 37.14095 | -88.74331 | 32132 ft | 363 kts | 255° |
| 2026-04-30 14:41 | 37.12134 | -88.80164 | 32132 ft | 363 kts | 256° |
| 2026-04-30 14:41 | 37.10191 | -88.85953 | 32141 ft | 362 kts | 256° |
| 2026-04-30 14:42 | 37.08251 | -88.91724 | 32137 ft | 361 kts | 256° |
| 2026-04-30 14:42 | 37.06312 | -88.97468 | 32136 ft | 360 kts | 256° |
| 2026-04-30 14:43 | 37.04362 | -89.03238 | 32139 ft | 360 kts | 256° |
| 2026-04-30 14:43 | 37.02411 | -89.08996 | 32141 ft | 361 kts | 256° |
| 2026-04-30 14:44 | 37.00463 | -89.14755 | 32135 ft | 360 kts | 256° |
| 2026-04-30 14:44 | 36.98502 | -89.20524 | 32144 ft | 360 kts | 256° |
| 2026-04-30 14:45 | 36.96549 | -89.26253 | 32137 ft | 360 kts | 256° |
| 2026-04-30 14:45 | 36.94596 | -89.31983 | 32142 ft | 360 kts | 256° |
| 2026-04-30 14:46 | 36.92629 | -89.37736 | 32134 ft | 361 kts | 256° |
| 2026-04-30 14:46 | 36.90664 | -89.43478 | 32149 ft | 359 kts | 256° |
| 2026-04-30 14:47 | 36.88696 | -89.49203 | 32141 ft | 361 kts | 256° |
| 2026-04-30 14:47 | 36.86727 | -89.54932 | 32143 ft | 360 kts | 255° |
| 2026-04-30 14:48 | 36.84760 | -89.60648 | 32139 ft | 360 kts | 256° |
| 2026-04-30 14:48 | 36.82769 | -89.66410 | 32146 ft | 361 kts | 254° |
| 2026-04-30 14:49 | 36.80792 | -89.72138 | 32126 ft | 360 kts | 254° |
| 2026-04-30 14:49 | 36.78815 | -89.77830 | 32142 ft | 360 kts | 255° |
| 2026-04-30 14:50 | 36.75830 | -89.86432 | 32136 ft | 360 kts | 254° |
| 2026-04-30 14:51 | 36.72847 | -89.94981 | 32139 ft | 360 kts | 255° |
| 2026-04-30 14:52 | 36.69855 | -90.03548 | 32135 ft | 360 kts | 255° |
| 2026-04-30 14:52 | 36.66865 | -90.12094 | 32139 ft | 360 kts | 254° |
| 2026-04-30 14:53 | 36.63873 | -90.20617 | 32144 ft | 359 kts | 254° |
| 2026-04-30 14:54 | 36.59875 | -90.31942 | 32138 ft | 360 kts | 255° |
| 2026-04-30 14:55 | 36.56867 | -90.40464 | 32138 ft | 359 kts | 254° |
| 2026-04-30 14:56 | 36.52841 | -90.51817 | 32131 ft | 358 kts | 255° |
| 2026-04-30 14:57 | 36.49829 | -90.60278 | 32141 ft | 359 kts | 254° |
| 2026-04-30 14:58 | 36.45782 | -90.71616 | 32143 ft | 360 kts | 254° |
| 2026-04-30 14:58 | 36.42738 | -90.80112 | 32143 ft | 361 kts | 253° |
| 2026-04-30 15:00 | 36.37642 | -90.94295 | 32141 ft | 359 kts | 254° |
| 2026-04-30 15:01 | 36.33571 | -91.05569 | 32140 ft | 360 kts | 254° |
| 2026-04-30 15:01 | 36.30523 | -91.14000 | 32138 ft | 359 kts | 253° |
| 2026-04-30 15:02 | 36.28467 | -91.19657 | 32140 ft | 360 kts | 254° |
| 2026-04-30 15:03 | 36.23352 | -91.33707 | 32142 ft | 358 kts | 253° |
| 2026-04-30 15:04 | 36.18257 | -91.47642 | 32142 ft | 357 kts | 253° |
| 2026-04-30 15:06 | 36.13158 | -91.61533 | 32134 ft | 354 kts | 253° |
| 2026-04-30 15:07 | 36.09275 | -91.72682 | 32146 ft | 354 kts | 253° |
| 2026-04-30 15:08 | 36.05388 | -91.83842 | 32125 ft | 353 kts | 253° |
| 2026-04-30 15:09 | 36.00505 | -91.97757 | 32130 ft | 354 kts | 253° |
| 2026-04-30 15:10 | 35.96576 | -92.08916 | 32114 ft | 356 kts | 254° |
| 2026-04-30 15:11 | 35.90686 | -92.25575 | 32113 ft | 354 kts | 253° |
| 2026-04-30 15:13 | 35.85767 | -92.39430 | 32110 ft | 354 kts | 253° |
| 2026-04-30 15:14 | 35.78830 | -92.58838 | 32112 ft | 355 kts | 254° |
| 2026-04-30 15:17 | 35.69823 | -92.83888 | 32107 ft | 357 kts | 253° |
| 2026-04-30 15:19 | 35.61753 | -93.06140 | 32104 ft | 358 kts | 253° |
| 2026-04-30 17:39 | 32.16521 | -109.25309 | 34109 ft | 385 kts | 270° |
| 2026-04-30 17:41 | 32.19130 | -109.50245 | 29344 ft | 390 kts | 270° |
| 2026-04-30 17:42 | 32.19790 | -109.56639 | 27634 ft | 398 kts | 271° |
| 2026-04-30 17:42 | 32.20763 | -109.66217 | 25821 ft | 390 kts | 270° |
| 2026-04-30 17:43 | 32.20926 | -109.72543 | 24634 ft | 384 kts | 264° |
| 2026-04-30 17:44 | 32.20268 | -109.81880 | 22774 ft | 381 kts | 262° |
| 2026-04-30 17:44 | 32.19506 | -109.91137 | 20988 ft | 377 kts | 262° |
| 2026-04-30 17:46 | 32.18227 | -110.06338 | 18122 ft | 370 kts | 262° |
| 2026-04-30 17:47 | 32.17200 | -110.18290 | 16196 ft | 366 kts | 263° |
| 2026-04-30 17:48 | 32.16188 | -110.30026 | 15081 ft | 349 kts | 265° |
| 2026-04-30 17:48 | 32.16210 | -110.38277 | 14170 ft | 325 kts | 275° |
| 2026-04-30 17:49 | 32.17587 | -110.47997 | 14079 ft | 292 kts | 289° |
| 2026-04-30 17:50 | 32.20264 | -110.57021 | 14052 ft | 292 kts | 289° |
| 2026-04-30 17:51 | 32.22268 | -110.63792 | 13948 ft | 288 kts | 289° |
| 2026-04-30 17:52 | 32.24206 | -110.70531 | 12688 ft | 288 kts | 289° |
| 2026-04-30 17:53 | 32.27518 | -110.81594 | 10704 ft | 286 kts | 289° |
| 2026-04-30 17:54 | 32.30237 | -110.90352 | 9991 ft | 285 kts | 289° |
| 2026-04-30 17:55 | 32.32989 | -110.99073 | 9064 ft | 283 kts | 289° |
| 2026-04-30 17:56 | 32.35712 | -111.07536 | 8002 ft | 261 kts | 282° |
| 2026-04-30 17:57 | 32.35381 | -111.13492 | 7274 ft | 241 kts | 235° |
| 2026-04-30 17:58 | 32.31596 | -111.15904 | 6957 ft | 202 kts | 162° |
| 2026-04-30 17:59 | 32.27169 | -111.12213 | 6417 ft | 196 kts | 136° |
| 2026-04-30 18:00 | 32.23557 | -111.07912 | 5467 ft | 162 kts | 137° |
| 2026-04-30 18:00 | 32.21221 | -111.05193 | 4890 ft | 157 kts | 136° |
| 2026-04-30 18:01 | 32.19675 | -111.03390 | 4507 ft | 157 kts | 136° |
| 2026-04-30 18:02 | 32.17443 | -111.00777 | 3910 ft | 145 kts | 135° |
| 2026-04-30 18:02 | 32.15308 | -110.98274 | 3371 ft | 144 kts | 135° |
| 2026-04-30 18:03 | 32.13189 | -110.95791 | 2818 ft | 142 kts | 134° |
| 2026-04-30 18:04 | 32.11331 | -110.93605 | 2617 ft | 61 kts | 134° |
| 2026-04-30 18:05 | 32.11237 | -110.93257 | 2624 ft | 14 kts | 316° |
| 2026-04-30 18:06 | 32.11615 | -110.93702 | 2613 ft | 21 kts | 315° |
| 2026-04-30 18:07 | 32.11854 | -110.93738 | 2607 ft | 0 kts | 58° |